createdAt,value
2023-05-24T00:00:12.995Z,23.18
2023-05-24T00:01:16.747Z,23.22
2023-05-24T00:02:20.174Z,23.26
2023-05-24T00:03:22.139Z,23.26
2023-05-24T00:04:25.510Z,23.25
2023-05-24T00:05:31.338Z,23.24
2023-05-24T00:06:35.017Z,23.26
2023-05-24T00:07:37.974Z,23.21
2023-05-24T00:08:39.815Z,23.22
2023-05-24T00:09:41.618Z,23.22
2023-05-24T00:10:44.064Z,23.16
2023-05-24T00:11:46.120Z,23.20
2023-05-24T00:12:48.081Z,23.18
2023-05-24T00:13:49.957Z,23.17
2023-05-24T00:14:51.851Z,23.18
2023-05-24T00:15:53.800Z,23.17
2023-05-24T00:16:55.840Z,22.99
2023-05-24T00:17:57.953Z,23.16
2023-05-24T00:18:59.839Z,23.16
2023-05-24T00:20:01.733Z,23.10
2023-05-24T00:21:03.789Z,23.14
2023-05-24T00:22:05.658Z,23.14
2023-05-24T00:23:08.067Z,23.12
2023-05-24T00:24:11.196Z,23.13
2023-05-24T00:25:13.261Z,23.13
2023-05-24T00:26:15.175Z,23.13
2023-05-24T00:27:24.457Z,23.13
2023-05-24T00:28:28.155Z,23.13
2023-05-24T00:29:32.217Z,23.13
2023-05-24T00:30:35.433Z,23.12
2023-05-24T00:31:37.385Z,23.11
2023-05-24T00:32:39.394Z,23.11
2023-05-24T00:33:41.552Z,23.09
2023-05-24T00:34:43.457Z,23.09
2023-05-24T00:35:46.498Z,23.05
2023-05-24T00:36:49.231Z,23.08
2023-05-24T00:37:51.114Z,23.04
2023-05-24T00:38:53.770Z,23.08
2023-05-24T00:39:55.996Z,23.07
2023-05-24T00:40:57.924Z,23.07
2023-05-24T00:42:00.060Z,23.01
2023-05-24T00:43:02.176Z,23.06
2023-05-24T00:44:04.012Z,23.06
2023-05-24T00:45:06.760Z,23.04
2023-05-24T00:46:18.158Z,23.05
2023-05-24T00:47:20.229Z,23.08
2023-05-24T00:48:23.808Z,23.07
2023-05-24T00:49:26.513Z,23.06
2023-05-24T00:50:28.632Z,23.04
2023-05-24T00:51:32.600Z,23.02
2023-05-24T00:52:34.610Z,23.04
2023-05-24T00:53:37.835Z,23.02
2023-05-24T00:54:40.870Z,23.03
2023-05-24T00:55:42.716Z,23.03
2023-05-24T00:56:46.455Z,23.03
2023-05-24T00:57:48.464Z,23.02
2023-05-24T00:58:54.924Z,23.01
2023-05-24T00:59:57.154Z,22.97
2023-05-24T01:01:00.068Z,23.01
2023-05-24T01:02:02.152Z,23.01
2023-05-24T01:03:05.457Z,23.00
2023-05-24T01:04:08.367Z,23.00
2023-05-24T01:05:13.774Z,23.00
2023-05-24T01:06:16.434Z,23.00
2023-05-24T01:07:56.544Z,23.08
2023-05-24T01:09:23.552Z,23.11
2023-05-24T01:10:36.572Z,23.13
2023-05-24T01:11:53.928Z,23.08
2023-05-24T01:13:05.326Z,23.08
2023-05-24T01:14:29.361Z,23.08
2023-05-24T01:15:55.840Z,23.09
2023-05-24T01:17:15.158Z,23.13
2023-05-24T01:18:26.341Z,23.08
2023-05-24T01:19:48.940Z,23.05
2023-05-24T01:20:59.425Z,23.05
2023-05-24T01:22:28.769Z,23.08
2023-05-24T01:23:47.619Z,23.08
2023-05-24T01:25:03.628Z,23.06
2023-05-24T01:26:21.126Z,23.04
2023-05-24T01:27:24.118Z,23.01
2023-05-24T01:28:27.550Z,22.98
2023-05-24T01:29:31.441Z,22.95
2023-05-24T01:30:34.187Z,22.95
2023-05-24T01:31:37.204Z,22.92
2023-05-24T01:32:39.228Z,22.92
2023-05-24T01:33:42.929Z,22.89
2023-05-24T01:34:44.906Z,22.89
2023-05-24T01:35:46.921Z,22.88
2023-05-24T01:36:48.766Z,22.89
2023-05-24T01:37:50.801Z,22.87
2023-05-24T01:38:53.093Z,22.87
2023-05-24T01:39:55.591Z,22.87
2023-05-24T01:41:05.959Z,22.86
2023-05-24T01:42:11.427Z,22.87
2023-05-24T01:43:23.210Z,22.89
2023-05-24T01:44:46.556Z,22.96
2023-05-24T01:46:20.034Z,23.01
2023-05-24T01:47:27.534Z,23.00
2023-05-24T01:48:50.927Z,22.97
2023-05-24T01:49:57.249Z,22.92
2023-05-24T01:51:00.844Z,22.92
2023-05-24T01:52:07.101Z,22.88
2023-05-24T01:53:14.355Z,22.88
2023-05-24T01:54:21.143Z,22.86
2023-05-24T01:55:27.239Z,22.84
2023-05-24T01:56:31.024Z,22.84
2023-05-24T01:57:34.905Z,22.84
2023-05-24T01:58:39.372Z,22.78
2023-05-24T01:59:44.599Z,22.83
2023-05-24T02:00:46.731Z,22.85
2023-05-24T02:01:49.391Z,22.84
2023-05-24T02:02:52.334Z,22.83
2023-05-24T02:03:55.586Z,22.81
2023-05-24T02:04:57.613Z,22.60
2023-05-24T02:05:59.485Z,22.82
2023-05-24T02:07:01.649Z,22.80
2023-05-24T02:08:03.458Z,22.71
2023-05-24T02:09:05.390Z,22.80
2023-05-24T02:10:07.743Z,22.79
2023-05-24T02:11:09.602Z,22.79
2023-05-24T02:12:11.888Z,22.78
2023-05-24T02:13:16.350Z,22.79
2023-05-24T02:14:20.096Z,22.80
2023-05-24T02:15:22.118Z,22.79
2023-05-24T02:16:27.001Z,22.79
2023-05-24T02:17:33.027Z,22.80
2023-05-24T02:18:35.118Z,22.80
2023-05-24T02:19:37.301Z,22.79
2023-05-24T02:20:41.195Z,22.78
2023-05-24T02:21:43.603Z,22.77
2023-05-24T02:22:46.336Z,22.78
2023-05-24T02:23:48.410Z,22.78
2023-05-24T02:24:50.293Z,22.78
2023-05-24T02:25:52.164Z,22.77
2023-05-24T02:26:56.094Z,22.77
2023-05-24T02:27:58.858Z,22.67
2023-05-24T02:29:00.875Z,22.77
2023-05-24T02:30:02.734Z,22.77
2023-05-24T02:31:04.835Z,22.74
2023-05-24T02:32:06.772Z,22.74
2023-05-24T02:33:08.948Z,22.76
2023-05-24T02:34:11.009Z,22.74
2023-05-24T02:35:13.231Z,22.75
2023-05-24T02:36:15.135Z,22.74
2023-05-24T02:37:16.948Z,22.74
2023-05-24T02:38:18.763Z,22.74
2023-05-24T02:39:20.723Z,22.73
2023-05-24T02:40:22.642Z,22.73
2023-05-24T02:41:24.512Z,22.69
2023-05-24T02:42:26.338Z,22.72
2023-05-24T02:43:28.184Z,22.73
2023-05-24T02:44:29.991Z,22.71
2023-05-24T02:45:31.885Z,22.72
2023-05-24T02:46:33.979Z,22.71
2023-05-24T02:47:35.879Z,22.72
2023-05-24T02:48:37.771Z,22.71
2023-05-24T02:49:39.617Z,22.70
2023-05-24T02:50:41.783Z,22.70
2023-05-24T02:51:43.886Z,22.70
2023-05-24T02:52:45.851Z,22.61
2023-05-24T02:53:47.859Z,22.70
2023-05-24T02:54:50.533Z,22.70
2023-05-24T02:55:54.516Z,22.72
2023-05-24T02:56:56.807Z,22.70
2023-05-24T02:57:59.496Z,22.71
2023-05-24T02:59:01.516Z,22.71
2023-05-24T03:00:08.391Z,22.71
2023-05-24T03:01:12.510Z,22.72
2023-05-24T03:02:15.546Z,22.72
2023-05-24T03:03:17.515Z,22.72
2023-05-24T03:04:20.488Z,22.70
2023-05-24T03:05:22.469Z,22.71
2023-05-24T03:06:25.630Z,22.70
2023-05-24T03:07:27.763Z,22.70
2023-05-24T03:08:29.655Z,22.71
2023-05-24T03:09:31.616Z,22.65
2023-05-24T03:10:33.805Z,22.69
2023-05-24T03:11:35.750Z,22.70
2023-05-24T03:12:37.678Z,22.71
2023-05-24T03:13:40.281Z,22.71
2023-05-24T03:14:42.400Z,22.67
2023-05-24T03:15:44.297Z,22.71
2023-05-24T03:16:46.249Z,22.70
2023-05-24T03:17:48.244Z,22.70
2023-05-24T03:18:51.985Z,22.71
2023-05-24T03:19:53.971Z,22.70
2023-05-24T03:20:55.911Z,22.70
2023-05-24T03:21:57.762Z,22.70
2023-05-24T03:22:59.687Z,22.71
2023-05-24T03:24:01.618Z,22.69
2023-05-24T03:25:03.736Z,22.42
2023-05-24T03:26:05.646Z,22.70
2023-05-24T03:27:08.770Z,22.70
2023-05-24T03:28:11.150Z,22.71
2023-05-24T03:29:13.098Z,22.72
2023-05-24T03:30:17.415Z,22.71
2023-05-24T03:31:29.349Z,22.75
2023-05-24T03:32:33.442Z,22.73
2023-05-24T03:33:35.617Z,22.73
2023-05-24T03:34:37.561Z,22.71
2023-05-24T03:35:39.885Z,22.71
2023-05-24T03:36:42.217Z,22.72
2023-05-24T03:37:44.582Z,22.72
2023-05-24T03:38:46.516Z,22.71
2023-05-24T03:39:48.628Z,22.71
2023-05-24T03:41:06.492Z,22.77
2023-05-24T03:42:09.284Z,22.74
2023-05-24T03:43:12.380Z,22.74
2023-05-24T03:44:23.128Z,22.74
2023-05-24T03:45:37.574Z,22.74
2023-05-24T03:46:41.037Z,22.78
2023-05-24T03:47:42.913Z,22.76
2023-05-24T03:48:44.873Z,22.75
2023-05-24T03:49:47.193Z,22.73
2023-05-24T03:50:49.191Z,22.71
2023-05-24T03:51:52.472Z,22.72
2023-05-24T03:52:54.478Z,22.73
2023-05-24T03:53:59.345Z,22.71
2023-05-24T03:55:01.593Z,22.73
2023-05-24T03:56:03.582Z,22.73
2023-05-24T03:57:06.784Z,22.72
2023-05-24T03:58:10.680Z,22.70
2023-05-24T03:59:12.868Z,22.74
2023-05-24T04:00:15.337Z,22.74
2023-05-24T04:01:32.694Z,22.76
2023-05-24T04:02:38.299Z,22.79
2023-05-24T04:03:41.357Z,22.78
2023-05-24T04:04:43.390Z,22.79
2023-05-24T04:05:45.350Z,22.68
2023-05-24T04:06:48.046Z,22.75
2023-05-24T04:07:51.012Z,22.77
2023-05-24T04:08:54.048Z,22.72
2023-05-24T04:09:55.974Z,22.77
2023-05-24T04:10:57.911Z,22.77
2023-05-24T04:11:59.759Z,22.77
2023-05-24T04:13:01.748Z,22.77
2023-05-24T04:14:03.798Z,22.78
2023-05-24T04:15:07.346Z,22.79
2023-05-24T04:16:09.896Z,22.79
2023-05-24T04:17:12.492Z,22.79
2023-05-24T04:18:14.585Z,22.82
2023-05-24T04:19:16.499Z,22.81
2023-05-24T04:20:18.838Z,22.82
2023-05-24T04:21:21.127Z,22.82
2023-05-24T04:22:25.709Z,22.83
2023-05-24T04:23:27.961Z,22.86
2023-05-24T04:24:29.895Z,22.84
2023-05-24T04:25:33.570Z,22.87
2023-05-24T04:26:37.732Z,22.87
2023-05-24T04:27:40.113Z,22.89
2023-05-24T04:28:43.162Z,22.89
2023-05-24T04:29:49.930Z,22.89
2023-05-24T04:30:52.356Z,22.90
2023-05-24T04:31:54.314Z,22.91
2023-05-24T04:32:57.477Z,22.90
2023-05-24T04:33:59.810Z,22.92
2023-05-24T04:35:04.467Z,22.92
2023-05-24T04:36:08.374Z,22.94
2023-05-24T04:37:10.830Z,22.93
2023-05-24T04:38:12.902Z,22.92
2023-05-24T04:39:14.790Z,22.93
2023-05-24T04:40:16.648Z,22.94
2023-05-24T04:41:18.494Z,22.95
2023-05-24T04:42:20.297Z,22.94
2023-05-24T04:43:22.827Z,22.88
2023-05-24T04:44:24.764Z,22.94
2023-05-24T04:45:26.586Z,22.95
2023-05-24T04:46:29.004Z,22.96
2023-05-24T04:47:31.618Z,22.96
2023-05-24T04:48:33.477Z,22.92
2023-05-24T04:49:35.468Z,22.96
2023-05-24T04:50:37.778Z,22.97
2023-05-24T04:51:40.227Z,22.97
2023-05-24T04:52:42.172Z,22.96
2023-05-24T04:53:44.167Z,22.98
2023-05-24T04:54:46.286Z,22.89
2023-05-24T04:55:49.052Z,22.97
2023-05-24T04:56:51.658Z,22.98
2023-05-24T04:57:53.474Z,22.98
2023-05-24T04:58:55.290Z,22.98
2023-05-24T04:59:57.525Z,22.99
2023-05-24T05:00:59.336Z,22.99
2023-05-24T05:02:01.183Z,22.99
2023-05-24T05:03:03.946Z,22.99
2023-05-24T05:04:06.208Z,22.98
2023-05-24T05:05:08.257Z,22.98
2023-05-24T05:06:10.559Z,22.99
2023-05-24T05:07:12.500Z,22.99
2023-05-24T05:08:14.381Z,23.00
2023-05-24T05:09:16.266Z,23.01
2023-05-24T05:10:18.130Z,23.01
2023-05-24T05:11:20.678Z,23.02
2023-05-24T05:12:22.601Z,23.03
2023-05-24T05:13:24.477Z,23.05
2023-05-24T05:14:26.371Z,23.06
2023-05-24T05:15:28.306Z,23.08
2023-05-24T05:16:30.287Z,23.11
2023-05-24T05:17:32.159Z,23.13
2023-05-24T05:18:34.727Z,23.16
2023-05-24T05:19:36.717Z,23.18
2023-05-24T05:20:38.683Z,23.21
2023-05-24T05:21:40.668Z,23.24
2023-05-24T05:22:49.470Z,23.27
2023-05-24T05:23:51.399Z,23.31
2023-05-24T05:24:53.402Z,23.34
2023-05-24T05:25:55.285Z,23.36
2023-05-24T05:26:57.228Z,23.39
2023-05-24T05:27:59.148Z,23.42
2023-05-24T05:29:01.054Z,23.44
2023-05-24T05:30:02.990Z,23.47
2023-05-24T05:31:04.987Z,23.45
2023-05-24T05:32:06.849Z,23.54
2023-05-24T05:33:09.448Z,23.58
2023-05-24T05:34:11.445Z,23.60
2023-05-24T05:35:13.304Z,23.63
2023-05-24T05:36:16.066Z,23.67
2023-05-24T05:37:17.854Z,23.71
2023-05-24T05:38:19.651Z,23.73
2023-05-24T05:39:21.508Z,23.76
2023-05-24T05:40:23.365Z,23.71
2023-05-24T05:41:25.172Z,23.80
2023-05-24T05:42:27.064Z,23.83
2023-05-24T05:43:29.265Z,23.85
2023-05-24T05:44:31.225Z,23.89
2023-05-24T05:45:33.117Z,23.90
2023-05-24T05:46:34.988Z,23.94
2023-05-24T05:47:36.867Z,23.95
2023-05-24T05:48:38.830Z,23.99
2023-05-24T05:49:40.751Z,24.01
2023-05-24T05:50:42.791Z,24.02
2023-05-24T05:51:46.272Z,24.02
2023-05-24T05:52:48.140Z,24.07
2023-05-24T05:53:49.942Z,24.04
2023-05-24T05:54:52.146Z,24.09
2023-05-24T05:55:54.070Z,24.11
2023-05-24T05:56:56.118Z,24.11
2023-05-24T05:57:57.987Z,24.12
2023-05-24T05:58:59.806Z,24.15
2023-05-24T06:00:01.913Z,24.15
2023-05-24T06:01:14.261Z,24.20
2023-05-24T06:02:16.213Z,24.19
2023-05-24T06:03:18.407Z,24.20
2023-05-24T06:04:20.546Z,24.21
2023-05-24T06:05:22.479Z,24.22
2023-05-24T06:06:24.273Z,24.22
2023-05-24T06:07:26.333Z,24.20
2023-05-24T06:08:30.922Z,24.21
2023-05-24T06:09:32.815Z,24.24
2023-05-24T06:10:34.794Z,24.23
2023-05-24T06:11:36.828Z,24.25
2023-05-24T06:12:40.572Z,24.24
2023-05-24T06:13:42.429Z,24.25
2023-05-24T06:14:44.381Z,24.26
2023-05-24T06:15:46.210Z,24.27
2023-05-24T06:16:48.621Z,24.27
2023-05-24T06:17:51.970Z,24.27
2023-05-24T06:19:05.446Z,24.28
2023-05-24T06:20:11.209Z,24.31
2023-05-24T06:21:13.851Z,24.31
2023-05-24T06:22:15.892Z,24.31
2023-05-24T06:23:17.784Z,24.31
2023-05-24T06:24:22.966Z,24.31
2023-05-24T06:25:24.861Z,24.32
2023-05-24T06:26:27.235Z,24.31
2023-05-24T06:27:29.088Z,24.31
2023-05-24T06:28:30.942Z,24.31
2023-05-24T06:29:32.824Z,24.32
2023-05-24T06:30:35.045Z,24.33
2023-05-24T06:31:37.144Z,24.32
2023-05-24T06:32:39.153Z,24.32
2023-05-24T06:33:42.712Z,24.33
2023-05-24T06:34:48.644Z,24.35
2023-05-24T06:35:50.745Z,24.35
2023-05-24T06:36:53.071Z,24.35
2023-05-24T06:37:55.042Z,24.33
2023-05-24T06:38:56.919Z,24.35
2023-05-24T06:39:58.800Z,24.35
2023-05-24T06:41:00.758Z,24.35
2023-05-24T06:42:02.757Z,24.36
2023-05-24T06:43:11.336Z,24.36
2023-05-24T06:44:16.510Z,24.38
2023-05-24T06:45:18.453Z,24.38
2023-05-24T06:46:20.880Z,24.38
2023-05-24T06:47:22.800Z,24.38
2023-05-24T06:48:24.935Z,24.39
2023-05-24T06:49:27.381Z,24.38
2023-05-24T06:50:29.386Z,24.39
2023-05-24T06:51:33.496Z,24.39
2023-05-24T06:52:35.848Z,24.38
2023-05-24T06:53:37.709Z,24.40
2023-05-24T06:54:39.689Z,24.40
2023-05-24T06:55:41.773Z,24.40
2023-05-24T06:56:43.652Z,24.40
2023-05-24T06:57:45.723Z,24.37
2023-05-24T06:58:48.073Z,24.41
2023-05-24T06:59:50.015Z,24.41
2023-05-24T07:00:52.295Z,24.41
2023-05-24T07:01:59.393Z,24.40
2023-05-24T07:03:02.105Z,24.42
2023-05-24T07:04:04.165Z,24.43
2023-05-24T07:05:08.375Z,24.43
2023-05-24T07:06:14.179Z,24.43
2023-05-24T07:07:16.193Z,24.45
2023-05-24T07:08:18.018Z,24.41
2023-05-24T07:09:20.157Z,24.43
2023-05-24T07:10:22.229Z,24.38
2023-05-24T07:11:24.201Z,24.43
2023-05-24T07:12:26.267Z,24.44
2023-05-24T07:13:28.339Z,24.44
2023-05-24T07:14:30.139Z,24.44
2023-05-24T07:15:31.957Z,24.45
2023-05-24T07:16:33.837Z,24.45
2023-05-24T07:17:35.938Z,24.41
2023-05-24T07:18:37.805Z,24.47
2023-05-24T07:19:39.675Z,24.44
2023-05-24T07:20:41.846Z,24.48
2023-05-24T07:21:44.074Z,24.50
2023-05-24T07:22:46.122Z,24.50
2023-05-24T07:23:47.969Z,24.47
2023-05-24T07:24:50.012Z,24.53
2023-05-24T07:25:52.228Z,24.54
2023-05-24T07:26:54.133Z,24.55
2023-05-24T07:27:56.036Z,24.56
2023-05-24T07:28:57.847Z,24.56
2023-05-24T07:29:59.633Z,24.57
2023-05-24T07:31:01.737Z,24.58
2023-05-24T07:32:04.113Z,24.59
2023-05-24T07:33:06.045Z,24.60
2023-05-24T07:34:08.115Z,24.56
2023-05-24T07:35:13.156Z,24.61
2023-05-24T07:36:15.906Z,24.64
2023-05-24T07:37:17.747Z,24.63
2023-05-24T07:38:19.711Z,24.64
2023-05-24T07:39:21.615Z,24.65
2023-05-24T07:40:24.107Z,24.61
2023-05-24T07:41:27.673Z,24.65
2023-05-24T07:42:29.659Z,24.67
2023-05-24T07:43:31.501Z,24.67
2023-05-24T07:44:33.685Z,24.68
2023-05-24T07:45:35.656Z,24.68
2023-05-24T07:46:38.093Z,24.69
2023-05-24T07:47:39.997Z,24.68
2023-05-24T07:48:41.912Z,24.69
2023-05-24T07:49:43.733Z,24.70
2023-05-24T07:50:48.787Z,24.70
2023-05-24T07:51:50.727Z,24.72
2023-05-24T07:52:52.608Z,24.72
2023-05-24T07:53:54.653Z,24.72
2023-05-24T07:54:56.564Z,24.73
2023-05-24T07:55:58.385Z,24.73
2023-05-24T07:57:00.318Z,24.73
2023-05-24T07:58:02.154Z,24.73
2023-05-24T07:59:04.935Z,24.68
2023-05-24T08:00:14.664Z,24.75
2023-05-24T08:01:18.569Z,24.75
2023-05-24T08:02:20.443Z,24.76
2023-05-24T08:03:25.997Z,24.76
2023-05-24T08:04:28.225Z,24.72
2023-05-24T08:05:30.523Z,24.77
2023-05-24T08:06:32.977Z,24.77
2023-05-24T08:07:35.312Z,24.76
2023-05-24T08:08:37.203Z,24.77
2023-05-24T08:09:39.400Z,24.76
2023-05-24T08:10:41.308Z,24.77
2023-05-24T08:11:43.184Z,24.77
2023-05-24T08:12:45.076Z,24.76
2023-05-24T08:13:47.391Z,24.76
2023-05-24T08:14:49.216Z,24.78
2023-05-24T08:15:51.122Z,24.78
2023-05-24T08:16:52.932Z,24.78
2023-05-24T08:17:55.016Z,24.78
2023-05-24T08:18:57.094Z,24.61
2023-05-24T08:19:58.995Z,24.74
2023-05-24T08:21:01.132Z,24.79
2023-05-24T08:22:06.017Z,24.79
2023-05-24T08:23:08.220Z,24.80
2023-05-24T08:24:10.069Z,24.80
2023-05-24T08:25:11.962Z,24.73
2023-05-24T08:26:13.961Z,24.80
2023-05-24T08:27:15.897Z,24.80
2023-05-24T08:28:18.289Z,24.79
2023-05-24T08:29:20.196Z,24.81
2023-05-24T08:30:22.032Z,24.80
2023-05-24T08:31:23.929Z,24.77
2023-05-24T08:32:27.076Z,24.81
2023-05-24T08:33:29.931Z,24.82
2023-05-24T08:34:31.812Z,24.83
2023-05-24T08:35:33.777Z,24.83
2023-05-24T08:36:35.596Z,24.84
2023-05-24T08:37:37.538Z,24.83
2023-05-24T08:38:39.416Z,24.83
2023-05-24T08:39:41.531Z,24.84
2023-05-24T08:40:43.428Z,24.85
2023-05-24T08:41:54.276Z,24.84
2023-05-24T08:43:03.139Z,24.91
2023-05-24T08:44:07.573Z,24.88
2023-05-24T08:45:13.046Z,24.87
2023-05-24T08:46:17.375Z,24.88
2023-05-24T08:47:22.350Z,24.87
2023-05-24T08:48:25.793Z,24.88
2023-05-24T08:49:32.162Z,24.87
2023-05-24T08:50:35.966Z,24.89
2023-05-24T08:51:39.760Z,24.88
2023-05-24T08:52:42.669Z,24.88
2023-05-24T08:53:48.875Z,24.89
2023-05-24T08:54:53.213Z,24.84
2023-05-24T08:55:56.229Z,24.90
2023-05-24T08:56:59.421Z,24.89
2023-05-24T08:58:01.373Z,24.91
2023-05-24T08:59:03.293Z,24.90
2023-05-24T09:00:08.337Z,24.89
2023-05-24T09:01:13.214Z,24.88
2023-05-24T09:02:17.610Z,24.90
2023-05-24T09:03:20.081Z,24.91
2023-05-24T09:04:22.946Z,24.90
2023-05-24T09:05:26.117Z,24.90
2023-05-24T09:06:27.974Z,24.91
2023-05-24T09:07:32.392Z,24.90
2023-05-24T09:08:37.437Z,24.91
2023-05-24T09:09:45.301Z,24.91
2023-05-24T09:10:54.935Z,24.93
2023-05-24T09:12:02.217Z,24.93
2023-05-24T09:13:07.200Z,24.94
2023-05-24T09:14:09.643Z,24.93
2023-05-24T09:15:11.905Z,24.92
2023-05-24T09:16:15.290Z,24.92
2023-05-24T09:17:17.481Z,24.90
2023-05-24T09:18:19.531Z,24.88
2023-05-24T09:19:21.413Z,24.85
2023-05-24T09:20:23.410Z,24.89
2023-05-24T09:21:25.766Z,24.91
2023-05-24T09:22:30.711Z,24.90
2023-05-24T09:23:33.053Z,24.92
2023-05-24T09:24:41.804Z,24.93
2023-05-24T09:25:48.055Z,24.94
2023-05-24T09:26:51.056Z,24.96
2023-05-24T09:27:53.829Z,24.92
2023-05-24T09:28:56.640Z,24.94
2023-05-24T09:29:58.742Z,24.94
2023-05-24T09:31:05.522Z,24.94
2023-05-24T09:32:09.357Z,24.97
2023-05-24T09:33:13.476Z,24.96
2023-05-24T09:34:16.680Z,24.96
2023-05-24T09:35:18.967Z,24.96
2023-05-24T09:36:20.988Z,24.96
2023-05-24T09:37:29.897Z,24.95
2023-05-24T09:38:36.532Z,24.98
2023-05-24T09:39:39.417Z,24.98
2023-05-24T09:40:41.803Z,24.98
2023-05-24T09:41:44.039Z,24.98
2023-05-24T09:42:46.555Z,24.98
2023-05-24T09:43:50.002Z,24.94
2023-05-24T09:45:07.919Z,25.00
2023-05-24T09:46:10.814Z,25.03
2023-05-24T09:47:13.090Z,25.01
2023-05-24T09:48:18.042Z,25.00
2023-05-24T09:49:21.726Z,24.97
2023-05-24T09:50:23.595Z,25.00
2023-05-24T09:51:26.225Z,24.98
2023-05-24T09:52:28.523Z,25.00
2023-05-24T09:53:32.450Z,24.97
2023-05-24T09:54:34.500Z,25.00
2023-05-24T09:55:37.497Z,24.99
2023-05-24T09:56:40.710Z,25.00
2023-05-24T09:57:50.537Z,24.98
2023-05-24T09:58:52.513Z,24.97
2023-05-24T09:59:54.415Z,25.00
2023-05-24T10:01:07.691Z,25.01
2023-05-24T10:02:11.066Z,25.04
2023-05-24T10:03:13.570Z,25.02
2023-05-24T10:04:15.761Z,25.02
2023-05-24T10:05:17.685Z,25.02
2023-05-24T10:06:20.285Z,25.02
2023-05-24T10:07:22.669Z,25.01
2023-05-24T10:08:24.691Z,25.01
2023-05-24T10:09:33.756Z,25.02
2023-05-24T10:10:35.751Z,25.03
2023-05-24T10:11:37.639Z,25.02
2023-05-24T10:12:44.066Z,25.03
2023-05-24T10:13:46.934Z,25.03
2023-05-24T10:14:50.153Z,25.03
2023-05-24T10:15:52.070Z,24.99
2023-05-24T10:16:54.439Z,25.03
2023-05-24T10:17:57.267Z,25.04
2023-05-24T10:18:59.620Z,25.04
2023-05-24T10:20:02.271Z,25.03
2023-05-24T10:21:09.654Z,25.03
2023-05-24T10:22:14.281Z,25.04
2023-05-24T10:23:20.912Z,25.04
2023-05-24T10:24:26.058Z,25.05
2023-05-24T10:25:30.014Z,25.05
2023-05-24T10:26:33.858Z,25.05
2023-05-24T10:27:38.324Z,25.06
2023-05-24T10:28:55.111Z,25.06
2023-05-24T10:29:59.258Z,25.10
2023-05-24T10:31:07.463Z,25.06
2023-05-24T10:32:09.563Z,25.08
2023-05-24T10:33:14.173Z,25.06
2023-05-24T10:34:16.814Z,25.07
2023-05-24T10:35:20.387Z,25.07
2023-05-24T10:36:22.851Z,25.06
2023-05-24T10:37:25.551Z,25.06
2023-05-24T10:38:27.405Z,25.06
2023-05-24T10:39:29.498Z,25.05
2023-05-24T10:40:32.294Z,25.06
2023-05-24T10:41:44.236Z,25.03
2023-05-24T10:42:47.554Z,25.08
2023-05-24T10:44:07.948Z,25.09
2023-05-24T10:45:23.131Z,25.15
2023-05-24T10:46:26.082Z,25.13
2023-05-24T10:47:28.833Z,25.12
2023-05-24T10:48:31.253Z,25.10
2023-05-24T10:49:33.054Z,25.10
2023-05-24T10:50:35.034Z,25.08
2023-05-24T10:51:40.723Z,25.07
2023-05-24T10:52:42.590Z,25.03
2023-05-24T10:53:44.433Z,25.08
2023-05-24T10:55:09.857Z,25.12
2023-05-24T10:56:13.739Z,25.14
2023-05-24T10:57:24.608Z,25.12
2023-05-24T10:58:32.989Z,25.13
2023-05-24T10:59:41.265Z,25.12
2023-05-24T11:00:44.587Z,25.13
2023-05-24T11:01:55.450Z,25.12
2023-05-24T11:03:09.087Z,25.13
2023-05-24T11:04:19.007Z,25.15
2023-05-24T11:05:21.132Z,25.15
2023-05-24T11:06:49.744Z,25.18
2023-05-24T11:07:59.294Z,25.18
2023-05-24T11:09:01.214Z,25.12
2023-05-24T11:10:09.597Z,25.10
2023-05-24T11:11:26.715Z,25.08
2023-05-24T11:12:34.681Z,25.16
2023-05-24T11:13:38.077Z,25.15
2023-05-24T11:14:40.212Z,25.09
2023-05-24T11:15:51.343Z,25.08
2023-05-24T11:16:53.343Z,25.08
2023-05-24T11:18:12.357Z,25.14
2023-05-24T11:19:22.409Z,25.18
2023-05-24T11:20:24.490Z,25.16
2023-05-24T11:21:28.010Z,25.14
2023-05-24T11:22:31.700Z,25.14
2023-05-24T11:23:35.400Z,25.13
2023-05-24T11:24:38.635Z,25.13
2023-05-24T11:25:40.612Z,25.07
2023-05-24T11:26:44.143Z,25.12
2023-05-24T11:27:46.828Z,25.12
2023-05-24T11:28:49.633Z,25.10
2023-05-24T11:29:52.197Z,25.12
2023-05-24T11:30:54.022Z,25.12
2023-05-24T11:31:58.433Z,25.11
2023-05-24T11:33:02.411Z,25.14
2023-05-24T11:34:04.320Z,25.14
2023-05-24T11:35:09.094Z,25.13
2023-05-24T11:36:11.134Z,25.14
2023-05-24T11:37:15.274Z,25.14
2023-05-24T11:38:23.411Z,25.15
2023-05-24T11:39:31.555Z,25.01
2023-05-24T11:40:34.576Z,25.12
2023-05-24T11:41:38.235Z,25.17
2023-05-24T11:42:41.129Z,25.16
2023-05-24T11:43:43.067Z,25.15
2023-05-24T11:44:44.974Z,25.16
2023-05-24T11:45:50.056Z,25.14
2023-05-24T11:46:59.471Z,25.14
2023-05-24T11:48:05.457Z,25.17
2023-05-24T11:49:07.352Z,25.17
2023-05-24T11:50:09.631Z,25.17
2023-05-24T11:51:11.772Z,25.16
2023-05-24T11:52:14.822Z,25.15
2023-05-24T11:53:19.228Z,25.13
2023-05-24T11:54:22.431Z,25.16
2023-05-24T11:55:24.773Z,25.14
2023-05-24T11:56:31.570Z,25.15
2023-05-24T11:57:40.248Z,25.16
2023-05-24T11:58:48.819Z,25.17
2023-05-24T11:59:50.800Z,25.19
2023-05-24T12:00:53.000Z,25.18
2023-05-24T12:02:00.244Z,25.15
2023-05-24T12:03:07.514Z,25.19
2023-05-24T12:04:10.167Z,25.19
2023-05-24T12:05:14.237Z,25.18
2023-05-24T12:06:16.073Z,25.17
2023-05-24T12:07:18.039Z,25.17
2023-05-24T12:08:20.512Z,25.17
2023-05-24T12:09:23.600Z,25.17
2023-05-24T12:10:25.486Z,25.17
2023-05-24T12:11:28.510Z,25.17
2023-05-24T12:12:34.302Z,25.16
2023-05-24T12:13:47.311Z,25.21
2023-05-24T12:14:49.177Z,25.20
2023-05-24T12:15:56.624Z,25.14
2023-05-24T12:16:59.930Z,25.20
2023-05-24T12:18:01.839Z,25.18
2023-05-24T12:19:09.505Z,25.18
2023-05-24T12:20:16.337Z,25.20
2023-05-24T12:21:20.214Z,25.19
2023-05-24T12:22:28.388Z,25.18
2023-05-24T12:23:32.679Z,25.21
2023-05-24T12:24:34.827Z,25.21
2023-05-24T12:25:37.637Z,25.14
2023-05-24T12:26:44.088Z,25.15
2023-05-24T12:27:48.246Z,25.20
2023-05-24T12:28:55.187Z,25.17
2023-05-24T12:30:06.282Z,25.21
2023-05-24T12:31:09.084Z,25.22
2023-05-24T12:32:15.664Z,25.20
2023-05-24T12:33:21.290Z,25.20
2023-05-24T12:34:24.441Z,25.17
2023-05-24T12:35:26.384Z,25.21
2023-05-24T12:36:31.273Z,25.17
2023-05-24T12:37:33.769Z,25.20
2023-05-24T12:38:35.585Z,25.18
2023-05-24T12:39:37.830Z,25.20
2023-05-24T12:40:44.605Z,25.11
2023-05-24T12:41:52.126Z,25.19
2023-05-24T12:42:56.145Z,25.21
2023-05-24T12:43:57.959Z,25.22
2023-05-24T12:44:59.802Z,25.22
2023-05-24T12:46:01.931Z,25.22
2023-05-24T12:47:06.727Z,25.19
2023-05-24T12:48:08.937Z,25.21
2023-05-24T12:49:10.785Z,25.22
2023-05-24T12:50:12.940Z,25.21
2023-05-24T12:51:14.846Z,25.20
2023-05-24T12:52:17.752Z,25.21
2023-05-24T12:53:24.034Z,25.21
2023-05-24T12:54:27.821Z,25.22
2023-05-24T12:55:30.526Z,25.23
2023-05-24T12:56:32.378Z,25.22
2023-05-24T12:57:34.265Z,25.22
2023-05-24T12:58:36.105Z,25.22
2023-05-24T12:59:38.154Z,25.22
2023-05-24T13:00:40.152Z,25.22
2023-05-24T13:01:42.471Z,25.22
2023-05-24T13:02:44.466Z,25.22
2023-05-24T13:03:46.337Z,25.23
2023-05-24T13:04:48.628Z,25.23
2023-05-24T13:05:51.039Z,25.22
2023-05-24T13:06:53.110Z,25.18
2023-05-24T13:07:56.741Z,25.21
2023-05-24T13:08:58.835Z,25.23
2023-05-24T13:10:00.706Z,25.24
2023-05-24T13:11:02.724Z,25.24
2023-05-24T13:12:05.947Z,25.24
2023-05-24T13:13:07.805Z,25.24
2023-05-24T13:14:11.558Z,25.21
2023-05-24T13:15:14.145Z,25.24
2023-05-24T13:16:16.218Z,25.25
2023-05-24T13:17:18.226Z,25.25
2023-05-24T13:18:20.275Z,25.25
2023-05-24T13:19:22.497Z,25.21
2023-05-24T13:20:24.611Z,25.25
2023-05-24T13:21:26.978Z,25.24
2023-05-24T13:22:28.882Z,25.25
2023-05-24T13:23:30.966Z,25.25
2023-05-24T13:24:32.824Z,25.20
2023-05-24T13:25:34.633Z,25.25
2023-05-24T13:26:38.067Z,25.22
2023-05-24T13:27:41.148Z,25.27
2023-05-24T13:29:04.983Z,25.25
2023-05-24T13:30:05.767Z,25.31
2023-05-24T13:31:07.821Z,25.25
2023-05-24T13:32:09.784Z,25.27
2023-05-24T13:33:11.658Z,25.27
2023-05-24T13:34:13.694Z,25.28
2023-05-24T13:35:15.522Z,25.26
2023-05-24T13:36:17.452Z,25.26
2023-05-24T13:37:19.594Z,25.26
2023-05-24T13:38:22.286Z,25.25
2023-05-24T13:39:24.921Z,25.26
2023-05-24T13:40:26.865Z,25.25
2023-05-24T13:41:28.756Z,25.24